ENKRULMM

Guest
Details From ENKR - HOYBUKTMOEN
To ULMM - Murmansk
Flight Number -
Tags generated
Created
Modified
Stats Distance 83 nm / 154 km
Max Altitude 0 ft / 0 m
Waypoints 2
Social Downloads 1
Likes 0
Share VATSIM

Download

Looking for another format? Having issues loading an existing format? Contact us
Advertisement - Login to hide

Notes

Basic altitude profile: - Ascent Rate: 2500ft/min - Ascent Speed: 250kts - Cruise Altitude: 35000ft - Cruise Speed: 420kts - Descent Rate: 1500ft/min - Descent Speed: 250kts Options: - Use NATs: yes - Use PACOTS: yes - Use low airways: yes - Use high airways: no

Route

ENKR ULMM

ID Type Via Altitude Latitude Longitude Leg Dist Tot Dist Heading (true) Name
O ENKR APT - 0 ft / 0 m 69.72522˚ 29.89080˚ - 0 nm - HOYBUKTMOEN
O ULMM APT - 0 ft / 0 m 68.78167˚ 32.75082˚ 83 nm 83 nm 132° / 134° Murmansk

Altitude Profile

Advertisement - Login to hide

ENKR

Details ICAO ENKR (KKN)
Name HOYBUKTMOEN
Region Norway
Timezone Europe/Oslo (UTC+1.0)
Stats Elevation 283 ft / 86 m (AMSL)
Location 69.725215° 29.890800°
Runways 1
Magnetic Variation 14.945° E

METAR

ENKR 140220Z AUTO 24008KT 9999 OVC006/// M06/M07 Q0973 RMK WIND 731FT 24019KT

Decode

TAF

Not found

Departure Runways

ID Width Length Bearing (true) Bearing (mag) Surface Threshold Offset Overrun Length
06 148 ft / 45 m 6,192 ft / 1,887 m 69.03° 54.09° Asphalt 184 ft / 56 m 0 ft / 0 m
24 148 ft / 45 m 6,192 ft / 1,887 m 249.07° 234.13° Asphalt 1,450 ft / 442 m 0 ft / 0 m

ULMM

Details ICAO ULMM (MMK)
Name Murmansk
Region Russia
Timezone Europe/Moscow (UTC+3.0)
Stats Elevation 266 ft / 81 m (AMSL)
Location 68.781671° 32.750821°
Runways 1
Magnetic Variation 15.948° E

METAR

ULMM 140230Z 21004MPS 5000 -SHSN BKN020CB M04/M06 Q0975 R13/690144 NOSIG RMK QFE725

Decode

TAF

TAF TAF ULMM 140155Z 1403/1503 19004G09MPS 4000 -SHSN BKN013CB TEMPO 1403/1407 22006G12MPS 2100 -SHSN DRSN BKN011CB TEMPO 1407/1412 23008G15MPS 1200 SHSN DRSN BKN006 BKN013CB TEMPO 1412/1418 23006G12MPS 3100 -SHSN DRSN BKN011CB TEMPO 1418/1503 18003MPS

Decode

Destination Runways

ID Width Length Bearing (true) Bearing (mag) Surface Threshold Offset Overrun Length
14 148 ft / 45 m 8,172 ft / 2,491 m 146.23° 130.28° Concrete 0 ft / 0 m 160 ft / 49 m
32 148 ft / 45 m 8,172 ft / 2,491 m 326.26° 310.31° Concrete 0 ft / 0 m 160 ft / 49 m

Approach Navaids

Runway Type Ident Frequency Range Bearing (true) Bearing (mag) Slope Elevation
14 Localiser IPF 110.30 MHz 18 nm / 33 km 146.45° 130.51° - 276 ft / 84 m (AMSL)
14 Glidescope IPF 110.30 MHz 10 nm / 19 km 146.00° 130.05° 3.00° 266 ft / 81 m (AMSL)
32 Localiser IRD 108.50 MHz 18 nm / 33 km 326.45° 310.51° - 110 ft / 34 m (AMSL)
32 Glidescope IRD 108.50 MHz 10 nm / 19 km 326.00° 310.05° 3.00° 266 ft / 81 m (AMSL)

Popular Alternatives